This is the latest recevied weather packets stored in our database for station/object DM1RG-6. If no packets are shown the sender has not sent any weather packets the latest 10 day(s).
| Time | Temp. | Humidity | Pressure | Rain* | Wind** | Luminosity | Snow |
|---|---|---|---|---|---|---|---|
| 1777665963 | 12.78° C | 71% | 1024.8 hPa | 0 mm | - | - | - |
| 1777664163 | 13.89° C | 66% | 1024.8 hPa | 0 mm | - | - | - |
| 1777662724 | 15° C | 57% | 1024.6 hPa | 0 mm | - | - | - |
| 1777660563 | 17.22° C | 49% | 1024.8 hPa | 0 mm | - | - | - |
| 1777659483 | 20° C | 41% | 1024.7 hPa | 0 mm | - | - | - |
| 1777659123 | 21.11° C | 39% | 1024.6 hPa | 0 mm | - | - | - |
| 1777658763 | 21.67° C | 36% | 1024.7 hPa | 0 mm | - | - | - |
| 1777656963 | 22.22° C | 35% | 1024.4 hPa | 0 mm | - | - | - |
| 1777655523 | 22.78° C | 33% | 1024.6 hPa | 0 mm | - | - | - |
| 1777653363 | 22.78° C | 33% | 1025 hPa | 0 mm | - | - | - |
| 1777652643 | 23.89° C | 32% | 1024.9 hPa | 0 mm | - | - | - |
| 1777652283 | 22.78° C | 34% | 1025.1 hPa | 0 mm | - | - | - |
| 1777651923 | 22.78° C | 33% | 1025.2 hPa | 0 mm | - | - | - |
| 1777651563 | 23.33° C | 32% | 1025.2 hPa | 0 mm | - | - | - |
| 1777650123 | 22.78° C | 33% | 1025.3 hPa | 0 mm | - | - | - |
| 1777649763 | 23.33° C | 33% | 1025.6 hPa | 0 mm | - | - | - |
| 1777649403 | 22.78° C | 32% | 1025.7 hPa | 0 mm | - | - | - |
| 1777649043 | 24.44° C | 30% | 1025.7 hPa | 0 mm | - | - | - |
| 1777648683 | 24.44° C | 30% | 1025.7 hPa | 0 mm | - | - | - |
| 1777648323 | 23.89° C | 31% | 1025.7 hPa | 0 mm | - | - | - |
| 1777647963 | 22.78° C | 33% | 1025.7 hPa | 0 mm | - | - | - |
| 1777646163 | 22.78° C | 32% | 1026 hPa | 0 mm | - | - | - |
| 1777645803 | 22.78° C | 32% | 1026.2 hPa | 0 mm | - | - | - |
| 1777645443 | 23.89° C | 31% | 1026.3 hPa | 0 mm | - | - | - |
| 1777645083 | 22.78° C | 33% | 1026.2 hPa | 0 mm | - | - | - |
* Rain latest hour (hover to see other rain measurements)
** Current wind speed in m/s (hover to see current wind gust speed)